sensor_id;sensor_type;location;lat;lon;timestamp;P1;durP1;ratioP1;P2;durP2;ratioP2
23044;SDS011;11690;51.716;23.066;2023-03-12T00:00:17;9.43;;;3.90;;
23044;SDS011;11690;51.716;23.066;2023-03-12T00:03:04;6.60;;;3.83;;
23044;SDS011;11690;51.716;23.066;2023-03-12T00:05:32;9.13;;;4.40;;
23044;SDS011;11690;51.716;23.066;2023-03-12T00:07:59;11.30;;;4.30;;
23044;SDS011;11690;51.716;23.066;2023-03-12T00:10:26;8.77;;;4.83;;
23044;SDS011;11690;51.716;23.066;2023-03-12T00:12:54;8.40;;;4.93;;
23044;SDS011;11690;51.716;23.066;2023-03-12T00:15:21;9.10;;;5.47;;
23044;SDS011;11690;51.716;23.066;2023-03-12T00:17:49;7.47;;;4.30;;
23044;SDS011;11690;51.716;23.066;2023-03-12T00:20:16;6.93;;;3.53;;
23044;SDS011;11690;51.716;23.066;2023-03-12T00:22:44;9.27;;;5.00;;
23044;SDS011;11690;51.716;23.066;2023-03-12T00:25:13;13.77;;;4.83;;
23044;SDS011;11690;51.716;23.066;2023-03-12T00:27:41;8.57;;;4.97;;
23044;SDS011;11690;51.716;23.066;2023-03-12T00:30:09;10.83;;;4.63;;
23044;SDS011;11690;51.716;23.066;2023-03-12T00:32:37;7.30;;;4.47;;
23044;SDS011;11690;51.716;23.066;2023-03-12T00:35:05;11.43;;;4.97;;
23044;SDS011;11690;51.716;23.066;2023-03-12T00:37:33;11.07;;;4.57;;
23044;SDS011;11690;51.716;23.066;2023-03-12T00:40:00;8.53;;;4.37;;
23044;SDS011;11690;51.716;23.066;2023-03-12T00:42:27;10.47;;;4.60;;
23044;SDS011;11690;51.716;23.066;2023-03-12T00:44:55;7.87;;;4.20;;
23044;SDS011;11690;51.716;23.066;2023-03-12T00:47:22;12.93;;;5.27;;
23044;SDS011;11690;51.716;23.066;2023-03-12T00:49:49;10.50;;;5.37;;
23044;SDS011;11690;51.716;23.066;2023-03-12T00:52:16;8.43;;;5.20;;
23044;SDS011;11690;51.716;23.066;2023-03-12T00:54:44;8.73;;;4.90;;
23044;SDS011;11690;51.716;23.066;2023-03-12T00:57:11;11.50;;;4.87;;
23044;SDS011;11690;51.716;23.066;2023-03-12T00:59:38;10.73;;;5.50;;
23044;SDS011;11690;51.716;23.066;2023-03-12T01:02:06;16.47;;;5.63;;
23044;SDS011;11690;51.716;23.066;2023-03-12T01:04:34;7.63;;;5.17;;
23044;SDS011;11690;51.716;23.066;2023-03-12T01:07:01;8.17;;;5.10;;
23044;SDS011;11690;51.716;23.066;2023-03-12T01:09:29;16.70;;;6.30;;
23044;SDS011;11690;51.716;23.066;2023-03-12T01:11:56;10.63;;;6.10;;
23044;SDS011;11690;51.716;23.066;2023-03-12T01:14:23;14.10;;;5.97;;
23044;SDS011;11690;51.716;23.066;2023-03-12T01:16:50;8.27;;;5.40;;
23044;SDS011;11690;51.716;23.066;2023-03-12T01:19:19;10.33;;;4.77;;
23044;SDS011;11690;51.716;23.066;2023-03-12T01:21:47;11.87;;;6.83;;
23044;SDS011;11690;51.716;23.066;2023-03-12T01:24:14;13.57;;;5.13;;
23044;SDS011;11690;51.716;23.066;2023-03-12T01:26:43;7.13;;;4.63;;
23044;SDS011;11690;51.716;23.066;2023-03-12T01:29:10;12.90;;;6.83;;
23044;SDS011;11690;51.716;23.066;2023-03-12T01:31:37;12.83;;;7.37;;
23044;SDS011;11690;51.716;23.066;2023-03-12T01:34:05;10.57;;;6.43;;
23044;SDS011;11690;51.716;23.066;2023-03-12T01:36:32;9.83;;;5.80;;
23044;SDS011;11690;51.716;23.066;2023-03-12T01:39:00;13.57;;;6.17;;
23044;SDS011;11690;51.716;23.066;2023-03-12T01:41:28;9.13;;;4.70;;
23044;SDS011;11690;51.716;23.066;2023-03-12T01:43:58;13.77;;;8.23;;
23044;SDS011;11690;51.716;23.066;2023-03-12T01:51:42;12.30;;;6.30;;
23044;SDS011;11690;51.716;23.066;2023-03-12T01:54:31;12.23;;;5.67;;
23044;SDS011;11690;51.716;23.066;2023-03-12T01:57:01;14.27;;;8.27;;
23044;SDS011;11690;51.716;23.066;2023-03-12T01:59:36;12.30;;;7.20;;
23044;SDS011;11690;51.716;23.066;2023-03-12T02:02:05;14.37;;;6.67;;
23044;SDS011;11690;51.716;23.066;2023-03-12T02:04:33;18.87;;;8.17;;
23044;SDS011;11690;51.716;23.066;2023-03-12T02:07:08;13.43;;;7.33;;
23044;SDS011;11690;51.716;23.066;2023-03-12T02:09:40;8.87;;;5.47;;
23044;SDS011;11690;51.716;23.066;2023-03-12T02:12:09;16.67;;;6.83;;
23044;SDS011;11690;51.716;23.066;2023-03-12T02:14:37;14.50;;;7.03;;
23044;SDS011;11690;51.716;23.066;2023-03-12T02:17:05;13.80;;;6.90;;
23044;SDS011;11690;51.716;23.066;2023-03-12T02:22:00;15.30;;;6.87;;
23044;SDS011;11690;51.716;23.066;2023-03-12T02:24:32;15.90;;;8.00;;
23044;SDS011;11690;51.716;23.066;2023-03-12T02:27:05;15.87;;;6.60;;
23044;SDS011;11690;51.716;23.066;2023-03-12T02:29:35;14.07;;;6.30;;
23044;SDS011;11690;51.716;23.066;2023-03-12T02:32:03;13.47;;;7.40;;
23044;SDS011;11690;51.716;23.066;2023-03-12T02:34:31;9.13;;;4.70;;
23044;SDS011;11690;51.716;23.066;2023-03-12T02:36:58;14.80;;;6.53;;
23044;SDS011;11690;51.716;23.066;2023-03-12T02:39:26;11.77;;;6.47;;
23044;SDS011;11690;51.716;23.066;2023-03-12T02:41:54;13.77;;;7.07;;
23044;SDS011;11690;51.716;23.066;2023-03-12T02:44:33;13.23;;;7.33;;
23044;SDS011;11690;51.716;23.066;2023-03-12T02:47:02;11.67;;;7.10;;
23044;SDS011;11690;51.716;23.066;2023-03-12T02:49:31;17.90;;;7.50;;
23044;SDS011;11690;51.716;23.066;2023-03-12T02:51:59;12.27;;;6.47;;
23044;SDS011;11690;51.716;23.066;2023-03-12T02:54:28;14.40;;;7.40;;
23044;SDS011;11690;51.716;23.066;2023-03-12T02:56:56;10.87;;;7.13;;
23044;SDS011;11690;51.716;23.066;2023-03-12T02:59:24;15.60;;;7.87;;
23044;SDS011;11690;51.716;23.066;2023-03-12T03:01:56;18.80;;;8.73;;
23044;SDS011;11690;51.716;23.066;2023-03-12T03:04:25;14.90;;;8.77;;
23044;SDS011;11690;51.716;23.066;2023-03-12T03:06:53;13.67;;;7.87;;
23044;SDS011;11690;51.716;23.066;2023-03-12T03:09:21;24.73;;;16.17;;
23044;SDS011;11690;51.716;23.066;2023-03-12T03:11:50;27.87;;;12.43;;
23044;SDS011;11690;51.716;23.066;2023-03-12T03:14:17;16.53;;;8.30;;
23044;SDS011;11690;51.716;23.066;2023-03-12T03:16:48;16.67;;;9.13;;
23044;SDS011;11690;51.716;23.066;2023-03-12T03:19:15;19.77;;;10.13;;
23044;SDS011;11690;51.716;23.066;2023-03-12T03:21:42;20.90;;;10.83;;
23044;SDS011;11690;51.716;23.066;2023-03-12T03:24:10;17.53;;;10.00;;
23044;SDS011;11690;51.716;23.066;2023-03-12T03:26:37;16.13;;;8.23;;
23044;SDS011;11690;51.716;23.066;2023-03-12T03:29:04;19.33;;;10.07;;
23044;SDS011;11690;51.716;23.066;2023-03-12T03:31:31;23.30;;;11.23;;
23044;SDS011;11690;51.716;23.066;2023-03-12T03:33:59;19.57;;;10.67;;
23044;SDS011;11690;51.716;23.066;2023-03-12T03:36:27;22.97;;;11.33;;
23044;SDS011;11690;51.716;23.066;2023-03-12T03:39:02;48.70;;;21.57;;
23044;SDS011;11690;51.716;23.066;2023-03-12T03:41:31;26.33;;;16.20;;
23044;SDS011;11690;51.716;23.066;2023-03-12T03:43:59;21.33;;;11.87;;
23044;SDS011;11690;51.716;23.066;2023-03-12T03:46:29;23.47;;;12.17;;
23044;SDS011;11690;51.716;23.066;2023-03-12T03:49:01;19.67;;;11.40;;
23044;SDS011;11690;51.716;23.066;2023-03-12T03:51:29;19.07;;;10.67;;
23044;SDS011;11690;51.716;23.066;2023-03-12T03:54:01;22.20;;;11.83;;
23044;SDS011;11690;51.716;23.066;2023-03-12T03:56:28;23.17;;;11.13;;
23044;SDS011;11690;51.716;23.066;2023-03-12T03:58:57;23.23;;;11.40;;
23044;SDS011;11690;51.716;23.066;2023-03-12T04:01:25;18.07;;;9.57;;
23044;SDS011;11690;51.716;23.066;2023-03-12T04:03:55;18.77;;;11.80;;
23044;SDS011;11690;51.716;23.066;2023-03-12T04:06:22;17.47;;;10.17;;
23044;SDS011;11690;51.716;23.066;2023-03-12T04:08:50;37.77;;;22.93;;
23044;SDS011;11690;51.716;23.066;2023-03-12T04:11:21;25.80;;;15.93;;
23044;SDS011;11690;51.716;23.066;2023-03-12T04:13:49;21.30;;;12.87;;
23044;SDS011;11690;51.716;23.066;2023-03-12T04:16:19;19.10;;;11.83;;
23044;SDS011;11690;51.716;23.066;2023-03-12T04:18:50;18.80;;;11.23;;
23044;SDS011;11690;51.716;23.066;2023-03-12T04:21:17;21.20;;;11.17;;
23044;SDS011;11690;51.716;23.066;2023-03-12T04:23:47;22.40;;;11.60;;
23044;SDS011;11690;51.716;23.066;2023-03-12T04:26:15;23.57;;;12.67;;
23044;SDS011;11690;51.716;23.066;2023-03-12T04:28:43;25.50;;;12.57;;
23044;SDS011;11690;51.716;23.066;2023-03-12T04:31:10;33.33;;;15.23;;
23044;SDS011;11690;51.716;23.066;2023-03-12T04:33:42;22.30;;;11.90;;
23044;SDS011;11690;51.716;23.066;2023-03-12T04:36:10;17.77;;;12.03;;
23044;SDS011;11690;51.716;23.066;2023-03-12T04:38:42;16.80;;;11.13;;
23044;SDS011;11690;51.716;23.066;2023-03-12T04:41:12;23.80;;;11.77;;
23044;SDS011;11690;51.716;23.066;2023-03-12T04:43:55;21.47;;;12.63;;
23044;SDS011;11690;51.716;23.066;2023-03-12T04:46:23;20.67;;;13.40;;
23044;SDS011;11690;51.716;23.066;2023-03-12T04:48:50;25.73;;;12.70;;
23044;SDS011;11690;51.716;23.066;2023-03-12T04:51:17;40.80;;;21.80;;
23044;SDS011;11690;51.716;23.066;2023-03-12T04:53:44;66.90;;;38.53;;
23044;SDS011;11690;51.716;23.066;2023-03-12T04:56:13;27.80;;;16.03;;
23044;SDS011;11690;51.716;23.066;2023-03-12T04:58:43;20.23;;;12.03;;
23044;SDS011;11690;51.716;23.066;2023-03-12T05:01:21;22.37;;;12.03;;
23044;SDS011;11690;51.716;23.066;2023-03-12T05:03:53;20.70;;;10.87;;
23044;SDS011;11690;51.716;23.066;2023-03-12T05:06:21;23.20;;;12.83;;
23044;SDS011;11690;51.716;23.066;2023-03-12T05:08:49;21.43;;;12.07;;
23044;SDS011;11690;51.716;23.066;2023-03-12T05:11:17;21.33;;;11.73;;
23044;SDS011;11690;51.716;23.066;2023-03-12T05:13:44;26.07;;;13.00;;
23044;SDS011;11690;51.716;23.066;2023-03-12T05:16:12;24.07;;;13.47;;
23044;SDS011;11690;51.716;23.066;2023-03-12T05:18:40;22.60;;;12.27;;
23044;SDS011;11690;51.716;23.066;2023-03-12T05:21:10;24.30;;;11.90;;
23044;SDS011;11690;51.716;23.066;2023-03-12T05:23:40;25.20;;;13.07;;
23044;SDS011;11690;51.716;23.066;2023-03-12T05:28:47;22.37;;;12.07;;
23044;SDS011;11690;51.716;23.066;2023-03-12T05:31:15;23.37;;;13.00;;
23044;SDS011;11690;51.716;23.066;2023-03-12T05:33:43;24.77;;;13.20;;
23044;SDS011;11690;51.716;23.066;2023-03-12T05:36:11;25.23;;;15.43;;
23044;SDS011;11690;51.716;23.066;2023-03-12T05:38:40;23.33;;;14.10;;
23044;SDS011;11690;51.716;23.066;2023-03-12T05:41:20;29.17;;;17.40;;
23044;SDS011;11690;51.716;23.066;2023-03-12T05:43:53;28.63;;;16.43;;
23044;SDS011;11690;51.716;23.066;2023-03-12T05:46:25;24.00;;;13.87;;
23044;SDS011;11690;51.716;23.066;2023-03-12T05:48:53;24.83;;;14.93;;
23044;SDS011;11690;51.716;23.066;2023-03-12T05:51:21;26.77;;;15.37;;
23044;SDS011;11690;51.716;23.066;2023-03-12T05:53:48;28.03;;;14.33;;
23044;SDS011;11690;51.716;23.066;2023-03-12T05:56:16;23.93;;;13.60;;
23044;SDS011;11690;51.716;23.066;2023-03-12T05:58:46;29.00;;;14.57;;
23044;SDS011;11690;51.716;23.066;2023-03-12T06:01:18;30.03;;;15.03;;
23044;SDS011;11690;51.716;23.066;2023-03-12T06:03:47;30.50;;;16.93;;
23044;SDS011;11690;51.716;23.066;2023-03-12T06:06:15;27.43;;;15.07;;
23044;SDS011;11690;51.716;23.066;2023-03-12T06:08:43;25.37;;;13.77;;
23044;SDS011;11690;51.716;23.066;2023-03-12T06:11:11;27.67;;;16.23;;
23044;SDS011;11690;51.716;23.066;2023-03-12T06:13:39;22.43;;;12.13;;
23044;SDS011;11690;51.716;23.066;2023-03-12T06:16:07;25.13;;;14.33;;
23044;SDS011;11690;51.716;23.066;2023-03-12T06:18:37;27.20;;;14.40;;
23044;SDS011;11690;51.716;23.066;2023-03-12T06:21:11;25.80;;;15.17;;
23044;SDS011;11690;51.716;23.066;2023-03-12T06:23:45;30.53;;;15.77;;
23044;SDS011;11690;51.716;23.066;2023-03-12T06:26:18;27.20;;;15.17;;
23044;SDS011;11690;51.716;23.066;2023-03-12T06:28:46;24.07;;;14.20;;
23044;SDS011;11690;51.716;23.066;2023-03-12T06:31:14;22.27;;;14.07;;
23044;SDS011;11690;51.716;23.066;2023-03-12T06:33:42;21.93;;;12.97;;
23044;SDS011;11690;51.716;23.066;2023-03-12T06:36:09;31.17;;;15.93;;
23044;SDS011;11690;51.716;23.066;2023-03-12T06:38:37;27.23;;;14.43;;
23044;SDS011;11690;51.716;23.066;2023-03-12T06:43:33;41.83;;;20.50;;
23044;SDS011;11690;51.716;23.066;2023-03-12T06:46:02;26.27;;;16.53;;
23044;SDS011;11690;51.716;23.066;2023-03-12T06:48:30;31.50;;;20.43;;
23044;SDS011;11690;51.716;23.066;2023-03-12T06:51:08;32.30;;;17.57;;
23044;SDS011;11690;51.716;23.066;2023-03-12T06:53:37;25.60;;;15.23;;
23044;SDS011;11690;51.716;23.066;2023-03-12T06:56:08;26.47;;;15.57;;
23044;SDS011;11690;51.716;23.066;2023-03-12T06:58:36;26.53;;;14.03;;
23044;SDS011;11690;51.716;23.066;2023-03-12T07:01:03;24.00;;;14.93;;
23044;SDS011;11690;51.716;23.066;2023-03-12T07:03:31;26.83;;;15.43;;
23044;SDS011;11690;51.716;23.066;2023-03-12T07:05:58;25.33;;;14.80;;
23044;SDS011;11690;51.716;23.066;2023-03-12T07:08:26;26.73;;;15.33;;
23044;SDS011;11690;51.716;23.066;2023-03-12T07:10:57;34.03;;;18.13;;
23044;SDS011;11690;51.716;23.066;2023-03-12T07:13:28;28.93;;;17.90;;
23044;SDS011;11690;51.716;23.066;2023-03-12T07:15:55;26.93;;;16.00;;
23044;SDS011;11690;51.716;23.066;2023-03-12T07:18:23;28.53;;;15.53;;
23044;SDS011;11690;51.716;23.066;2023-03-12T07:20:51;28.40;;;16.73;;
23044;SDS011;11690;51.716;23.066;2023-03-12T07:23:19;27.47;;;18.87;;
23044;SDS011;11690;51.716;23.066;2023-03-12T07:25:47;27.03;;;16.93;;
23044;SDS011;11690;51.716;23.066;2023-03-12T07:28:16;29.90;;;15.43;;
23044;SDS011;11690;51.716;23.066;2023-03-12T07:30:43;27.20;;;15.63;;
23044;SDS011;11690;51.716;23.066;2023-03-12T07:33:17;28.33;;;16.57;;
23044;SDS011;11690;51.716;23.066;2023-03-12T07:35:46;30.53;;;16.87;;
23044;SDS011;11690;51.716;23.066;2023-03-12T07:38:17;27.20;;;16.90;;
23044;SDS011;11690;51.716;23.066;2023-03-12T07:40:52;26.40;;;15.97;;
23044;SDS011;11690;51.716;23.066;2023-03-12T07:43:21;39.70;;;19.53;;
23044;SDS011;11690;51.716;23.066;2023-03-12T07:45:52;27.40;;;16.33;;
23044;SDS011;11690;51.716;23.066;2023-03-12T07:48:20;20.20;;;14.43;;
23044;SDS011;11690;51.716;23.066;2023-03-12T07:50:47;40.33;;;23.93;;
23044;SDS011;11690;51.716;23.066;2023-03-12T07:53:15;49.07;;;29.37;;
23044;SDS011;11690;51.716;23.066;2023-03-12T07:55:43;25.70;;;15.90;;
23044;SDS011;11690;51.716;23.066;2023-03-12T07:58:13;26.47;;;16.13;;
23044;SDS011;11690;51.716;23.066;2023-03-12T08:00:42;29.00;;;15.87;;
23044;SDS011;11690;51.716;23.066;2023-03-12T08:03:11;22.77;;;15.33;;
23044;SDS011;11690;51.716;23.066;2023-03-12T08:05:39;26.23;;;16.53;;
23044;SDS011;11690;51.716;23.066;2023-03-12T08:08:06;28.83;;;16.27;;
23044;SDS011;11690;51.716;23.066;2023-03-12T08:10:34;28.27;;;17.30;;
23044;SDS011;11690;51.716;23.066;2023-03-12T08:13:02;34.10;;;16.90;;
23044;SDS011;11690;51.716;23.066;2023-03-12T08:15:30;25.40;;;16.43;;
23044;SDS011;11690;51.716;23.066;2023-03-12T08:17:57;23.63;;;15.53;;
23044;SDS011;11690;51.716;23.066;2023-03-12T08:20:25;23.07;;;14.53;;
23044;SDS011;11690;51.716;23.066;2023-03-12T08:22:52;26.33;;;15.93;;
23044;SDS011;11690;51.716;23.066;2023-03-12T08:25:20;22.83;;;14.23;;
23044;SDS011;11690;51.716;23.066;2023-03-12T08:27:50;23.93;;;14.53;;
23044;SDS011;11690;51.716;23.066;2023-03-12T08:30:17;28.80;;;14.93;;
23044;SDS011;11690;51.716;23.066;2023-03-12T08:32:45;23.03;;;14.37;;
23044;SDS011;11690;51.716;23.066;2023-03-12T08:35:12;42.33;;;26.73;;
23044;SDS011;11690;51.716;23.066;2023-03-12T08:37:40;22.63;;;15.53;;
23044;SDS011;11690;51.716;23.066;2023-03-12T08:40:07;20.73;;;11.43;;
23044;SDS011;11690;51.716;23.066;2023-03-12T08:42:44;18.03;;;11.13;;
23044;SDS011;11690;51.716;23.066;2023-03-12T08:45:12;17.17;;;9.57;;
23044;SDS011;11690;51.716;23.066;2023-03-12T08:47:41;20.60;;;9.97;;
23044;SDS011;11690;51.716;23.066;2023-03-12T08:50:10;16.47;;;9.87;;
23044;SDS011;11690;51.716;23.066;2023-03-12T08:52:39;20.53;;;9.73;;
23044;SDS011;11690;51.716;23.066;2023-03-12T08:55:06;13.77;;;8.03;;
23044;SDS011;11690;51.716;23.066;2023-03-12T08:57:34;14.27;;;9.53;;
23044;SDS011;11690;51.716;23.066;2023-03-12T09:00:02;12.93;;;7.63;;
23044;SDS011;11690;51.716;23.066;2023-03-12T09:02:32;16.27;;;8.20;;
23044;SDS011;11690;51.716;23.066;2023-03-12T09:04:59;12.17;;;7.17;;
23044;SDS011;11690;51.716;23.066;2023-03-12T09:07:27;10.33;;;6.70;;
23044;SDS011;11690;51.716;23.066;2023-03-12T09:09:54;11.77;;;6.30;;
23044;SDS011;11690;51.716;23.066;2023-03-12T09:12:21;16.60;;;10.00;;
23044;SDS011;11690;51.716;23.066;2023-03-12T09:14:49;12.57;;;6.50;;
23044;SDS011;11690;51.716;23.066;2023-03-12T09:17:33;14.27;;;7.30;;
23044;SDS011;11690;51.716;23.066;2023-03-12T09:20:00;14.93;;;7.20;;
23044;SDS011;11690;51.716;23.066;2023-03-12T09:22:28;11.07;;;6.00;;
23044;SDS011;11690;51.716;23.066;2023-03-12T09:24:56;13.30;;;7.07;;
23044;SDS011;11690;51.716;23.066;2023-03-12T09:27:24;19.20;;;8.03;;
23044;SDS011;11690;51.716;23.066;2023-03-12T09:29:52;13.67;;;6.87;;
23044;SDS011;11690;51.716;23.066;2023-03-12T09:32:27;14.90;;;8.03;;
23044;SDS011;11690;51.716;23.066;2023-03-12T09:34:54;9.27;;;5.83;;
23044;SDS011;11690;51.716;23.066;2023-03-12T09:37:22;13.80;;;7.50;;
23044;SDS011;11690;51.716;23.066;2023-03-12T09:39:50;19.37;;;7.90;;
23044;SDS011;11690;51.716;23.066;2023-03-12T09:42:21;8.07;;;5.87;;
23044;SDS011;11690;51.716;23.066;2023-03-12T09:44:50;11.97;;;6.93;;
23044;SDS011;11690;51.716;23.066;2023-03-12T09:47:27;14.83;;;6.77;;
23044;SDS011;11690;51.716;23.066;2023-03-12T09:49:58;6.70;;;4.73;;
23044;SDS011;11690;51.716;23.066;2023-03-12T09:52:34;8.37;;;5.10;;
23044;SDS011;11690;51.716;23.066;2023-03-12T09:55:13;2.97;;;2.60;;
23044;SDS011;11690;51.716;23.066;2023-03-12T09:57:42;7.13;;;2.53;;
23044;SDS011;11690;51.716;23.066;2023-03-12T10:00:10;8.50;;;3.50;;
23044;SDS011;11690;51.716;23.066;2023-03-12T10:05:17;2.40;;;1.70;;
23044;SDS011;11690;51.716;23.066;2023-03-12T10:07:51;8.87;;;4.27;;
23044;SDS011;11690;51.716;23.066;2023-03-12T10:10:27;9.63;;;5.33;;
23044;SDS011;11690;51.716;23.066;2023-03-12T10:27:24;5.40;;;3.33;;
23044;SDS011;11690;51.716;23.066;2023-03-12T10:29:55;4.70;;;2.70;;
23044;SDS011;11690;51.716;23.066;2023-03-12T10:32:25;5.03;;;2.90;;
23044;SDS011;11690;51.716;23.066;2023-03-12T10:35:03;3.53;;;2.33;;
23044;SDS011;11690;51.716;23.066;2023-03-12T10:37:41;6.47;;;3.23;;
23044;SDS011;11690;51.716;23.066;2023-03-12T10:40:21;3.23;;;2.67;;
23044;SDS011;11690;51.716;23.066;2023-03-12T10:42:50;5.73;;;3.13;;
23044;SDS011;11690;51.716;23.066;2023-03-12T10:48:01;4.57;;;2.40;;
23044;SDS011;11690;51.716;23.066;2023-03-12T10:50:35;2.43;;;2.10;;
23044;SDS011;11690;51.716;23.066;2023-03-12T10:53:18;5.23;;;2.10;;
23044;SDS011;11690;51.716;23.066;2023-03-12T10:55:56;3.50;;;2.50;;
23044;SDS011;11690;51.716;23.066;2023-03-12T10:58:25;5.37;;;3.27;;
23044;SDS011;11690;51.716;23.066;2023-03-12T11:00:59;4.27;;;2.30;;
23044;SDS011;11690;51.716;23.066;2023-03-12T11:03:27;4.70;;;3.00;;
23044;SDS011;11690;51.716;23.066;2023-03-12T11:05:59;7.17;;;3.13;;
23044;SDS011;11690;51.716;23.066;2023-03-12T11:10:59;3.10;;;2.43;;
23044;SDS011;11690;51.716;23.066;2023-03-12T11:13:34;5.83;;;2.90;;
23044;SDS011;11690;51.716;23.066;2023-03-12T11:18:59;7.50;;;3.27;;
23044;SDS011;11690;51.716;23.066;2023-03-12T11:21:28;8.57;;;3.70;;
23044;SDS011;11690;51.716;23.066;2023-03-12T11:26:26;7.17;;;3.77;;
23044;SDS011;11690;51.716;23.066;2023-03-12T11:29:01;14.03;;;3.90;;
23044;SDS011;11690;51.716;23.066;2023-03-12T11:31:36;5.37;;;2.97;;
23044;SDS011;11690;51.716;23.066;2023-03-12T11:34:27;13.93;;;5.63;;
23044;SDS011;11690;51.716;23.066;2023-03-12T11:39:43;11.23;;;3.30;;
23044;SDS011;11690;51.716;23.066;2023-03-12T12:27:26;20.27;;;6.23;;
23044;SDS011;11690;51.716;23.066;2023-03-12T12:30:04;25.63;;;4.93;;
23044;SDS011;11690;51.716;23.066;2023-03-12T12:35:38;10.00;;;3.10;;
23044;SDS011;11690;51.716;23.066;2023-03-12T12:43:47;17.30;;;5.43;;
23044;SDS011;11690;51.716;23.066;2023-03-12T12:51:33;4.27;;;2.43;;
23044;SDS011;11690;51.716;23.066;2023-03-12T13:02:31;5.47;;;3.20;;
23044;SDS011;11690;51.716;23.066;2023-03-12T13:05:00;9.80;;;3.10;;
23044;SDS011;11690;51.716;23.066;2023-03-12T13:07:29;5.70;;;2.67;;
23044;SDS011;11690;51.716;23.066;2023-03-12T13:10:03;7.10;;;3.37;;
23044;SDS011;11690;51.716;23.066;2023-03-12T13:20:58;14.03;;;4.90;;
23044;SDS011;11690;51.716;23.066;2023-03-12T13:26:26;16.77;;;5.63;;
23044;SDS011;11690;51.716;23.066;2023-03-12T13:31:57;8.13;;;2.77;;
23044;SDS011;11690;51.716;23.066;2023-03-12T13:34:32;13.20;;;4.50;;
23044;SDS011;11690;51.716;23.066;2023-03-12T13:37:19;12.67;;;4.43;;
23044;SDS011;11690;51.716;23.066;2023-03-12T13:39:53;8.37;;;3.77;;
23044;SDS011;11690;51.716;23.066;2023-03-12T13:44:51;9.13;;;2.97;;
23044;SDS011;11690;51.716;23.066;2023-03-12T13:47:29;7.03;;;3.10;;
23044;SDS011;11690;51.716;23.066;2023-03-12T13:52:26;7.33;;;3.17;;
23044;SDS011;11690;51.716;23.066;2023-03-12T14:00:30;6.97;;;2.90;;
23044;SDS011;11690;51.716;23.066;2023-03-12T14:03:04;6.43;;;2.33;;
23044;SDS011;11690;51.716;23.066;2023-03-12T14:05:43;9.37;;;2.33;;
23044;SDS011;11690;51.716;23.066;2023-03-12T14:11:22;7.80;;;2.80;;
23044;SDS011;11690;51.716;23.066;2023-03-12T14:17:04;9.40;;;2.97;;
23044;SDS011;11690;51.716;23.066;2023-03-12T14:19:32;11.80;;;4.03;;
23044;SDS011;11690;51.716;23.066;2023-03-12T14:22:01;11.20;;;3.73;;
23044;SDS011;11690;51.716;23.066;2023-03-12T14:24:32;12.27;;;4.50;;
23044;SDS011;11690;51.716;23.066;2023-03-12T14:27:01;13.17;;;5.30;;
23044;SDS011;11690;51.716;23.066;2023-03-12T14:29:35;7.27;;;2.57;;
23044;SDS011;11690;51.716;23.066;2023-03-12T14:32:05;5.63;;;2.40;;
23044;SDS011;11690;51.716;23.066;2023-03-12T14:34:42;10.20;;;3.07;;
23044;SDS011;11690;51.716;23.066;2023-03-12T14:40:00;11.03;;;4.10;;
23044;SDS011;11690;51.716;23.066;2023-03-12T14:42:33;12.30;;;3.50;;
23044;SDS011;11690;51.716;23.066;2023-03-12T14:47:41;8.30;;;3.07;;
23044;SDS011;11690;51.716;23.066;2023-03-12T14:50:20;9.13;;;3.13;;
23044;SDS011;11690;51.716;23.066;2023-03-12T14:52:49;9.27;;;3.30;;
23044;SDS011;11690;51.716;23.066;2023-03-12T14:55:19;4.70;;;2.33;;
23044;SDS011;11690;51.716;23.066;2023-03-12T14:57:48;3.70;;;2.00;;
23044;SDS011;11690;51.716;23.066;2023-03-12T15:00:23;6.97;;;2.60;;
23044;SDS011;11690;51.716;23.066;2023-03-12T15:02:53;6.43;;;2.60;;
23044;SDS011;11690;51.716;23.066;2023-03-12T15:05:22;7.50;;;2.83;;
23044;SDS011;11690;51.716;23.066;2023-03-12T15:07:50;10.50;;;2.90;;
23044;SDS011;11690;51.716;23.066;2023-03-12T15:10:22;9.83;;;3.47;;
23044;SDS011;11690;51.716;23.066;2023-03-12T15:12:54;6.77;;;2.57;;
23044;SDS011;11690;51.716;23.066;2023-03-12T15:17:53;8.50;;;2.93;;
23044;SDS011;11690;51.716;23.066;2023-03-12T15:20:21;6.07;;;2.27;;
23044;SDS011;11690;51.716;23.066;2023-03-12T15:22:49;7.03;;;2.87;;
23044;SDS011;11690;51.716;23.066;2023-03-12T15:25:25;8.53;;;3.33;;
23044;SDS011;11690;51.716;23.066;2023-03-12T15:31:02;12.17;;;3.60;;
23044;SDS011;11690;51.716;23.066;2023-03-12T15:33:31;6.43;;;2.50;;
23044;SDS011;11690;51.716;23.066;2023-03-12T15:36:00;19.30;;;6.10;;
23044;SDS011;11690;51.716;23.066;2023-03-12T15:38:30;11.60;;;4.20;;
23044;SDS011;11690;51.716;23.066;2023-03-12T15:41:01;7.30;;;3.00;;
23044;SDS011;11690;51.716;23.066;2023-03-12T15:43:32;10.57;;;3.20;;
23044;SDS011;11690;51.716;23.066;2023-03-12T15:46:00;15.50;;;4.60;;
23044;SDS011;11690;51.716;23.066;2023-03-12T15:48:30;6.50;;;2.73;;
23044;SDS011;11690;51.716;23.066;2023-03-12T15:50:58;11.77;;;4.30;;
23044;SDS011;11690;51.716;23.066;2023-03-12T15:53:29;13.80;;;4.37;;
23044;SDS011;11690;51.716;23.066;2023-03-12T15:58:36;14.57;;;4.60;;
23044;SDS011;11690;51.716;23.066;2023-03-12T16:01:08;4.93;;;2.10;;
23044;SDS011;11690;51.716;23.066;2023-03-12T16:03:42;13.30;;;3.40;;
23044;SDS011;11690;51.716;23.066;2023-03-12T16:06:11;11.57;;;4.60;;
23044;SDS011;11690;51.716;23.066;2023-03-12T16:08:46;9.27;;;3.20;;
23044;SDS011;11690;51.716;23.066;2023-03-12T16:11:17;7.17;;;3.03;;
23044;SDS011;11690;51.716;23.066;2023-03-12T16:13:46;8.83;;;2.37;;
23044;SDS011;11690;51.716;23.066;2023-03-12T16:16:15;12.47;;;4.00;;
23044;SDS011;11690;51.716;23.066;2023-03-12T16:18:42;13.47;;;7.00;;
23044;SDS011;11690;51.716;23.066;2023-03-12T16:21:10;10.43;;;4.90;;
23044;SDS011;11690;51.716;23.066;2023-03-12T16:23:37;15.13;;;6.87;;
23044;SDS011;11690;51.716;23.066;2023-03-12T16:26:05;9.73;;;3.23;;
23044;SDS011;11690;51.716;23.066;2023-03-12T16:28:33;23.97;;;6.07;;
23044;SDS011;11690;51.716;23.066;2023-03-12T16:31:01;12.87;;;4.90;;
23044;SDS011;11690;51.716;23.066;2023-03-12T16:33:28;9.13;;;4.23;;
23044;SDS011;11690;51.716;23.066;2023-03-12T16:35:56;16.10;;;5.23;;
23044;SDS011;11690;51.716;23.066;2023-03-12T16:38:23;12.10;;;3.70;;
23044;SDS011;11690;51.716;23.066;2023-03-12T16:40:51;13.77;;;5.47;;
23044;SDS011;11690;51.716;23.066;2023-03-12T16:43:20;12.70;;;4.60;;
23044;SDS011;11690;51.716;23.066;2023-03-12T16:45:49;12.00;;;4.80;;
23044;SDS011;11690;51.716;23.066;2023-03-12T16:48:19;12.87;;;5.07;;
23044;SDS011;11690;51.716;23.066;2023-03-12T16:50:51;14.97;;;5.63;;
23044;SDS011;11690;51.716;23.066;2023-03-12T16:53:20;9.03;;;3.40;;
23044;SDS011;11690;51.716;23.066;2023-03-12T16:55:52;9.23;;;4.03;;
23044;SDS011;11690;51.716;23.066;2023-03-12T16:58:21;7.53;;;3.03;;
23044;SDS011;11690;51.716;23.066;2023-03-12T17:00:50;9.60;;;3.53;;
23044;SDS011;11690;51.716;23.066;2023-03-12T17:03:20;11.80;;;4.07;;
23044;SDS011;11690;51.716;23.066;2023-03-12T17:05:56;7.57;;;3.10;;
23044;SDS011;11690;51.716;23.066;2023-03-12T17:08:24;8.63;;;3.47;;
23044;SDS011;11690;51.716;23.066;2023-03-12T17:10:52;11.93;;;3.93;;